This is the latest recevied weather packets stored in our database for station/object KC5CAM-13. If no packets are shown the sender has not sent any weather packets the latest 10 day(s).
| Time | Temp. | Humidity | Pressure | Rain* | Wind** | Luminosity | Snow |
|---|---|---|---|---|---|---|---|
| 1777500855 | 16.67° C | 78% | 1014.4 hPa | 0 mm | - | 61 W/m² | - |
| 1777500552 | 16.67° C | 79% | 1014.7 hPa | 0 mm | - | 42 W/m² | - |
| 1777500249 | 16.67° C | 79% | 1014.4 hPa | 0 mm | - | 56 W/m² | - |
| 1777499945 | 16.67° C | 79% | 1014.1 hPa | 0 mm | - | 79 W/m² | - |
| 1777499642 | 16.67° C | 80% | 1014.2 hPa | 0 mm | - | 65 W/m² | - |
| 1777499339 | 16.67° C | 80% | 1014.4 hPa | 0 mm | - | 53 W/m² | - |
| 1777499036 | 16.67° C | 80% | 1014.3 hPa | 0 mm | - | 58 W/m² | - |
| 1777498732 | 16.67° C | 79% | 1015 hPa | 0 mm | - | 21 W/m² | - |
| 1777498429 | 17.22° C | 79% | 1014.7 hPa | 0 mm | - | 28 W/m² | - |
| 1777498126 | 17.22° C | 79% | 1013.9 hPa | 0 mm | - | 66 W/m² | - |
| 1777497823 | 17.22° C | 78% | 1013.6 hPa | 0 mm | - | 173 W/m² | - |
| 1777497519 | 16.67° C | 78% | 1013.7 hPa | 0 mm | - | 184 W/m² | - |
| 1777497216 | 16.67° C | 79% | 1014.1 hPa | 0 mm | - | 130 W/m² | - |
| 1777496912 | 16.67° C | 79% | 1014.3 hPa | 0 mm | - | 118 W/m² | - |
| 1777496609 | 16.67° C | 78% | 1014.5 hPa | 0 mm | - | 117 W/m² | - |
| 1777496306 | 16.67° C | 78% | 1014.4 hPa | 0 mm | - | 98 W/m² | - |
| 1777496002 | 16.67° C | 78% | 1014.7 hPa | 0 mm | - | 78 W/m² | - |
| 1777495698 | 16.67° C | 78% | 1015.1 hPa | 0 mm | - | 89 W/m² | - |
| 1777495394 | 17.22° C | 78% | 1015.2 hPa | 0 mm | - | 62 W/m² | - |
| 1777495091 | 17.22° C | 77% | 1015.1 hPa | 0 mm | - | 65 W/m² | - |
| 1777494788 | 17.22° C | 77% | 1015.2 hPa | 0 mm | - | 139 W/m² | - |
| 1777494485 | 17.22° C | 77% | 1015.1 hPa | 0 mm | - | 136 W/m² | - |
| 1777494182 | 17.22° C | 78% | 1015.3 hPa | 0 mm | - | 128 W/m² | - |
| 1777493879 | 17.22° C | 77% | 1015.5 hPa | 0 mm | - | 86 W/m² | - |
| 1777493577 | 17.22° C | 77% | 1015.6 hPa | 0 mm | - | 147 W/m² | - |
* Rain latest hour (hover to see other rain measurements)
** Current wind speed in m/s (hover to see current wind gust speed)